sensor_id;sensor_type;location;lat;lon;timestamp;P1;durP1;ratioP1;P2;durP2;ratioP2
46889;SDS011;32625;51.080;16.970;2022-12-18T00:01:23;74.87;;;31.13;;
46889;SDS011;32625;51.080;16.970;2022-12-18T00:03:52;71.88;;;27.92;;
46889;SDS011;32625;51.080;16.970;2022-12-18T00:06:21;67.32;;;28.50;;
46889;SDS011;32625;51.080;16.970;2022-12-18T00:08:54;60.90;;;26.70;;
46889;SDS011;32625;51.080;16.970;2022-12-18T00:11:24;58.50;;;24.52;;
46889;SDS011;32625;51.080;16.970;2022-12-18T00:13:54;64.05;;;25.75;;
46889;SDS011;32625;51.080;16.970;2022-12-18T00:16:22;54.55;;;24.90;;
46889;SDS011;32625;51.080;16.970;2022-12-18T00:18:55;62.13;;;25.33;;
46889;SDS011;32625;51.080;16.970;2022-12-18T00:21:27;56.20;;;23.85;;
46889;SDS011;32625;51.080;16.970;2022-12-18T00:23:56;62.45;;;24.95;;
46889;SDS011;32625;51.080;16.970;2022-12-18T00:26:30;57.95;;;25.08;;
46889;SDS011;32625;51.080;16.970;2022-12-18T00:29:01;67.90;;;29.55;;
46889;SDS011;32625;51.080;16.970;2022-12-18T00:31:38;63.65;;;28.73;;
46889;SDS011;32625;51.080;16.970;2022-12-18T00:34:05;65.93;;;27.02;;
46889;SDS011;32625;51.080;16.970;2022-12-18T00:36:33;66.20;;;26.03;;
46889;SDS011;32625;51.080;16.970;2022-12-18T00:39:02;64.03;;;25.98;;
46889;SDS011;32625;51.080;16.970;2022-12-18T00:41:31;64.33;;;25.20;;
46889;SDS011;32625;51.080;16.970;2022-12-18T00:44:17;66.28;;;28.35;;
46889;SDS011;32625;51.080;16.970;2022-12-18T00:46:46;68.10;;;28.33;;
46889;SDS011;32625;51.080;16.970;2022-12-18T00:49:16;62.20;;;24.77;;
46889;SDS011;32625;51.080;16.970;2022-12-18T00:51:50;60.33;;;26.52;;
46889;SDS011;32625;51.080;16.970;2022-12-18T00:54:18;67.65;;;29.52;;
46889;SDS011;32625;51.080;16.970;2022-12-18T00:56:45;54.67;;;26.30;;
46889;SDS011;32625;51.080;16.970;2022-12-18T00:59:16;64.90;;;27.00;;
46889;SDS011;32625;51.080;16.970;2022-12-18T01:01:44;61.22;;;26.90;;
46889;SDS011;32625;51.080;16.970;2022-12-18T01:04:12;67.80;;;28.23;;
46889;SDS011;32625;51.080;16.970;2022-12-18T01:06:40;59.10;;;24.85;;
46889;SDS011;32625;51.080;16.970;2022-12-18T01:09:07;54.25;;;24.27;;
46889;SDS011;32625;51.080;16.970;2022-12-18T01:11:35;70.10;;;25.92;;
46889;SDS011;32625;51.080;16.970;2022-12-18T01:14:03;60.75;;;24.52;;
46889;SDS011;32625;51.080;16.970;2022-12-18T01:16:30;56.80;;;25.33;;
46889;SDS011;32625;51.080;16.970;2022-12-18T01:18:58;60.35;;;25.02;;
46889;SDS011;32625;51.080;16.970;2022-12-18T01:21:26;64.43;;;27.30;;
46889;SDS011;32625;51.080;16.970;2022-12-18T01:23:54;60.97;;;24.92;;
46889;SDS011;32625;51.080;16.970;2022-12-18T01:26:23;57.75;;;25.20;;
46889;SDS011;32625;51.080;16.970;2022-12-18T01:28:51;59.67;;;24.15;;
46889;SDS011;32625;51.080;16.970;2022-12-18T01:31:26;53.25;;;23.48;;
46889;SDS011;32625;51.080;16.970;2022-12-18T01:33:55;52.60;;;22.73;;
46889;SDS011;32625;51.080;16.970;2022-12-18T01:36:27;51.70;;;22.65;;
46889;SDS011;32625;51.080;16.970;2022-12-18T01:38:56;57.53;;;24.65;;
46889;SDS011;32625;51.080;16.970;2022-12-18T01:41:26;59.03;;;23.47;;
46889;SDS011;32625;51.080;16.970;2022-12-18T01:49:52;49.22;;;21.02;;
46889;SDS011;32625;51.080;16.970;2022-12-18T01:52:21;53.20;;;23.15;;
46889;SDS011;32625;51.080;16.970;2022-12-18T01:54:49;44.90;;;20.30;;
46889;SDS011;32625;51.080;16.970;2022-12-18T01:57:19;50.67;;;21.85;;
46889;SDS011;32625;51.080;16.970;2022-12-18T01:59:47;46.72;;;20.23;;
46889;SDS011;32625;51.080;16.970;2022-12-18T02:02:19;55.78;;;23.20;;
46889;SDS011;32625;51.080;16.970;2022-12-18T02:04:47;59.30;;;23.73;;
46889;SDS011;32625;51.080;16.970;2022-12-18T02:07:54;51.67;;;24.33;;
46889;SDS011;32625;51.080;16.970;2022-12-18T02:13:19;53.47;;;22.33;;
46889;SDS011;32625;51.080;16.970;2022-12-18T02:15:53;45.65;;;20.50;;
46889;SDS011;32625;51.080;16.970;2022-12-18T02:18:33;47.42;;;20.00;;
46889;SDS011;32625;51.080;16.970;2022-12-18T02:21:20;55.97;;;21.73;;
46889;SDS011;32625;51.080;16.970;2022-12-18T02:26:46;52.15;;;22.15;;
46889;SDS011;32625;51.080;16.970;2022-12-18T02:29:21;51.15;;;21.45;;
46889;SDS011;32625;51.080;16.970;2022-12-18T02:31:56;51.55;;;22.73;;
46889;SDS011;32625;51.080;16.970;2022-12-18T02:34:28;40.35;;;19.27;;
46889;SDS011;32625;51.080;16.970;2022-12-18T02:36:58;50.35;;;21.83;;
46889;SDS011;32625;51.080;16.970;2022-12-18T02:39:29;46.80;;;21.13;;
46889;SDS011;32625;51.080;16.970;2022-12-18T02:42:02;50.17;;;20.80;;
46889;SDS011;32625;51.080;16.970;2022-12-18T02:44:35;48.17;;;19.90;;
46889;SDS011;32625;51.080;16.970;2022-12-18T02:47:17;43.22;;;19.80;;
46889;SDS011;32625;51.080;16.970;2022-12-18T02:55:53;51.72;;;20.70;;
46889;SDS011;32625;51.080;16.970;2022-12-18T02:58:40;48.08;;;20.25;;
46889;SDS011;32625;51.080;16.970;2022-12-18T03:01:30;48.70;;;19.63;;
46889;SDS011;32625;51.080;16.970;2022-12-18T03:04:14;48.75;;;19.55;;
46889;SDS011;32625;51.080;16.970;2022-12-18T03:06:52;48.80;;;20.02;;
46889;SDS011;32625;51.080;16.970;2022-12-18T03:09:34;50.45;;;21.55;;
46889;SDS011;32625;51.080;16.970;2022-12-18T03:12:47;48.77;;;20.03;;
46889;SDS011;32625;51.080;16.970;2022-12-18T03:17:45;51.45;;;19.73;;
46889;SDS011;32625;51.080;16.970;2022-12-18T03:20:18;47.50;;;20.92;;
46889;SDS011;32625;51.080;16.970;2022-12-18T03:22:49;47.63;;;20.35;;
46889;SDS011;32625;51.080;16.970;2022-12-18T03:25:19;47.90;;;21.10;;
46889;SDS011;32625;51.080;16.970;2022-12-18T03:27:53;50.30;;;20.73;;
46889;SDS011;32625;51.080;16.970;2022-12-18T03:30:24;51.67;;;21.88;;
46889;SDS011;32625;51.080;16.970;2022-12-18T03:35:39;48.15;;;22.20;;
46889;SDS011;32625;51.080;16.970;2022-12-18T03:38:10;49.72;;;21.15;;
46889;SDS011;32625;51.080;16.970;2022-12-18T03:40:51;48.92;;;22.52;;
46889;SDS011;32625;51.080;16.970;2022-12-18T03:43:54;48.28;;;20.80;;
46889;SDS011;32625;51.080;16.970;2022-12-18T03:46:56;51.83;;;22.05;;
46889;SDS011;32625;51.080;16.970;2022-12-18T03:54:52;52.63;;;21.00;;
46889;SDS011;32625;51.080;16.970;2022-12-18T03:57:23;56.53;;;21.67;;
46889;SDS011;32625;51.080;16.970;2022-12-18T03:59:56;43.40;;;18.95;;
46889;SDS011;32625;51.080;16.970;2022-12-18T04:03:02;46.88;;;19.13;;
46889;SDS011;32625;51.080;16.970;2022-12-18T04:05:40;50.67;;;21.00;;
46889;SDS011;32625;51.080;16.970;2022-12-18T04:08:11;50.90;;;19.50;;
46889;SDS011;32625;51.080;16.970;2022-12-18T04:10:42;46.42;;;20.65;;
46889;SDS011;32625;51.080;16.970;2022-12-18T04:13:10;54.47;;;21.17;;
46889;SDS011;32625;51.080;16.970;2022-12-18T04:15:37;44.95;;;19.95;;
46889;SDS011;32625;51.080;16.970;2022-12-18T04:18:09;51.60;;;20.95;;
46889;SDS011;32625;51.080;16.970;2022-12-18T04:20:40;51.95;;;21.08;;
46889;SDS011;32625;51.080;16.970;2022-12-18T04:23:07;57.28;;;22.98;;
46889;SDS011;32625;51.080;16.970;2022-12-18T04:25:35;50.65;;;22.42;;
46889;SDS011;32625;51.080;16.970;2022-12-18T04:28:06;48.78;;;21.23;;
46889;SDS011;32625;51.080;16.970;2022-12-18T04:30:34;48.45;;;21.00;;
46889;SDS011;32625;51.080;16.970;2022-12-18T04:33:02;50.25;;;20.38;;
46889;SDS011;32625;51.080;16.970;2022-12-18T04:35:30;51.83;;;22.77;;
46889;SDS011;32625;51.080;16.970;2022-12-18T04:37:58;52.90;;;21.43;;
46889;SDS011;32625;51.080;16.970;2022-12-18T04:40:26;46.95;;;21.88;;
46889;SDS011;32625;51.080;16.970;2022-12-18T04:42:53;54.25;;;22.10;;
46889;SDS011;32625;51.080;16.970;2022-12-18T04:45:21;48.17;;;21.30;;
46889;SDS011;32625;51.080;16.970;2022-12-18T04:47:48;43.70;;;20.83;;
46889;SDS011;32625;51.080;16.970;2022-12-18T04:50:16;48.93;;;21.77;;
46889;SDS011;32625;51.080;16.970;2022-12-18T04:52:44;51.53;;;21.73;;
46889;SDS011;32625;51.080;16.970;2022-12-18T04:55:12;46.42;;;22.55;;
46889;SDS011;32625;51.080;16.970;2022-12-18T04:57:39;49.67;;;21.77;;
46889;SDS011;32625;51.080;16.970;2022-12-18T05:00:06;49.60;;;19.92;;
46889;SDS011;32625;51.080;16.970;2022-12-18T05:02:34;49.53;;;21.67;;
46889;SDS011;32625;51.080;16.970;2022-12-18T05:05:01;46.17;;;18.90;;
46889;SDS011;32625;51.080;16.970;2022-12-18T05:07:29;52.10;;;21.10;;
46889;SDS011;32625;51.080;16.970;2022-12-18T05:09:56;46.33;;;20.30;;
46889;SDS011;32625;51.080;16.970;2022-12-18T05:12:23;44.10;;;20.73;;
46889;SDS011;32625;51.080;16.970;2022-12-18T05:14:50;40.67;;;19.42;;
46889;SDS011;32625;51.080;16.970;2022-12-18T05:17:17;47.87;;;23.47;;
46889;SDS011;32625;51.080;16.970;2022-12-18T05:19:44;44.63;;;19.20;;
46889;SDS011;32625;51.080;16.970;2022-12-18T05:22:11;47.08;;;19.80;;
46889;SDS011;32625;51.080;16.970;2022-12-18T05:24:38;42.95;;;20.00;;
46889;SDS011;32625;51.080;16.970;2022-12-18T05:27:05;43.63;;;20.35;;
46889;SDS011;32625;51.080;16.970;2022-12-18T05:29:33;44.85;;;20.35;;
46889;SDS011;32625;51.080;16.970;2022-12-18T05:32:00;42.27;;;19.97;;
46889;SDS011;32625;51.080;16.970;2022-12-18T05:34:27;43.35;;;20.58;;
46889;SDS011;32625;51.080;16.970;2022-12-18T05:36:54;45.87;;;21.77;;
46889;SDS011;32625;51.080;16.970;2022-12-18T05:39:21;50.58;;;20.88;;
46889;SDS011;32625;51.080;16.970;2022-12-18T05:41:48;46.53;;;21.70;;
46889;SDS011;32625;51.080;16.970;2022-12-18T05:44:15;48.47;;;22.48;;
46889;SDS011;32625;51.080;16.970;2022-12-18T05:46:42;43.13;;;22.50;;
46889;SDS011;32625;51.080;16.970;2022-12-18T05:49:09;47.42;;;22.65;;
46889;SDS011;32625;51.080;16.970;2022-12-18T05:51:37;57.72;;;24.67;;
46889;SDS011;32625;51.080;16.970;2022-12-18T05:54:04;54.95;;;23.98;;
46889;SDS011;32625;51.080;16.970;2022-12-18T05:56:31;53.22;;;24.92;;
46889;SDS011;32625;51.080;16.970;2022-12-18T05:58:59;56.13;;;25.77;;
46889;SDS011;32625;51.080;16.970;2022-12-18T06:01:26;56.03;;;25.77;;
46889;SDS011;32625;51.080;16.970;2022-12-18T06:03:54;57.20;;;26.95;;
46889;SDS011;32625;51.080;16.970;2022-12-18T06:06:23;62.95;;;27.05;;
46889;SDS011;32625;51.080;16.970;2022-12-18T06:08:53;69.67;;;30.73;;
46889;SDS011;32625;51.080;16.970;2022-12-18T06:11:24;65.97;;;30.00;;
46889;SDS011;32625;51.080;16.970;2022-12-18T06:13:53;67.70;;;29.97;;
46889;SDS011;32625;51.080;16.970;2022-12-18T06:16:24;63.07;;;27.27;;
46889;SDS011;32625;51.080;16.970;2022-12-18T06:18:53;62.80;;;28.33;;
46889;SDS011;32625;51.080;16.970;2022-12-18T06:21:25;66.00;;;28.87;;
46889;SDS011;32625;51.080;16.970;2022-12-18T06:23:53;61.17;;;28.00;;
46889;SDS011;32625;51.080;16.970;2022-12-18T06:26:20;62.57;;;27.87;;
46889;SDS011;32625;51.080;16.970;2022-12-18T06:28:53;63.00;;;28.50;;
46889;SDS011;32625;51.080;16.970;2022-12-18T06:31:20;57.28;;;27.08;;
46889;SDS011;32625;51.080;16.970;2022-12-18T06:33:47;67.85;;;28.00;;
46889;SDS011;32625;51.080;16.970;2022-12-18T06:36:15;62.07;;;28.77;;
46889;SDS011;32625;51.080;16.970;2022-12-18T06:38:43;67.90;;;28.93;;
46889;SDS011;32625;51.080;16.970;2022-12-18T06:41:14;67.80;;;30.40;;
46889;SDS011;32625;51.080;16.970;2022-12-18T06:43:43;66.13;;;29.00;;
46889;SDS011;32625;51.080;16.970;2022-12-18T06:46:11;67.57;;;28.07;;
46889;SDS011;32625;51.080;16.970;2022-12-18T06:48:39;67.83;;;30.53;;
46889;SDS011;32625;51.080;16.970;2022-12-18T06:51:06;65.30;;;29.90;;
46889;SDS011;32625;51.080;16.970;2022-12-18T06:53:33;66.03;;;29.77;;
46889;SDS011;32625;51.080;16.970;2022-12-18T06:56:04;61.07;;;28.40;;
46889;SDS011;32625;51.080;16.970;2022-12-18T06:58:36;63.42;;;29.55;;
46889;SDS011;32625;51.080;16.970;2022-12-18T07:01:04;63.67;;;28.27;;
46889;SDS011;32625;51.080;16.970;2022-12-18T07:03:33;67.20;;;29.08;;
46889;SDS011;32625;51.080;16.970;2022-12-18T07:06:00;66.53;;;30.47;;
46889;SDS011;32625;51.080;16.970;2022-12-18T07:08:28;71.00;;;31.57;;
46889;SDS011;32625;51.080;16.970;2022-12-18T07:10:56;73.15;;;34.92;;
46889;SDS011;32625;51.080;16.970;2022-12-18T07:13:24;57.38;;;26.73;;
46889;SDS011;32625;51.080;16.970;2022-12-18T07:15:51;72.13;;;30.55;;
46889;SDS011;32625;51.080;16.970;2022-12-18T07:18:18;53.72;;;27.38;;
46889;SDS011;32625;51.080;16.970;2022-12-18T07:20:45;57.35;;;26.27;;
46889;SDS011;32625;51.080;16.970;2022-12-18T07:23:14;46.53;;;24.52;;
46889;SDS011;32625;51.080;16.970;2022-12-18T07:25:41;50.53;;;23.80;;
46889;SDS011;32625;51.080;16.970;2022-12-18T07:28:08;48.60;;;23.73;;
46889;SDS011;32625;51.080;16.970;2022-12-18T07:30:42;50.78;;;24.00;;
46889;SDS011;32625;51.080;16.970;2022-12-18T07:33:09;48.58;;;23.55;;
46889;SDS011;32625;51.080;16.970;2022-12-18T07:35:36;51.10;;;23.15;;
46889;SDS011;32625;51.080;16.970;2022-12-18T07:38:04;48.10;;;23.40;;
46889;SDS011;32625;51.080;16.970;2022-12-18T07:40:31;47.33;;;22.67;;
46889;SDS011;32625;51.080;16.970;2022-12-18T07:42:58;47.78;;;23.90;;
46889;SDS011;32625;51.080;16.970;2022-12-18T07:45:25;49.40;;;23.05;;
46889;SDS011;32625;51.080;16.970;2022-12-18T07:47:52;49.15;;;24.30;;
46889;SDS011;32625;51.080;16.970;2022-12-18T07:50:19;52.03;;;26.17;;
46889;SDS011;32625;51.080;16.970;2022-12-18T07:52:46;50.25;;;25.02;;
46889;SDS011;32625;51.080;16.970;2022-12-18T07:55:13;54.03;;;27.33;;
46889;SDS011;32625;51.080;16.970;2022-12-18T07:57:41;51.87;;;25.87;;
46889;SDS011;32625;51.080;16.970;2022-12-18T08:00:16;47.22;;;24.98;;
46889;SDS011;32625;51.080;16.970;2022-12-18T08:02:43;53.00;;;28.83;;
46889;SDS011;32625;51.080;16.970;2022-12-18T08:05:11;59.55;;;27.15;;
46889;SDS011;32625;51.080;16.970;2022-12-18T08:07:38;58.50;;;31.83;;
46889;SDS011;32625;51.080;16.970;2022-12-18T08:10:05;71.17;;;39.50;;
46889;SDS011;32625;51.080;16.970;2022-12-18T08:12:33;80.93;;;43.87;;
46889;SDS011;32625;51.080;16.970;2022-12-18T08:15:00;66.27;;;34.50;;
46889;SDS011;32625;51.080;16.970;2022-12-18T08:17:28;66.60;;;32.60;;
46889;SDS011;32625;51.080;16.970;2022-12-18T08:19:55;67.63;;;36.60;;
46889;SDS011;32625;51.080;16.970;2022-12-18T08:22:22;61.50;;;31.45;;
46889;SDS011;32625;51.080;16.970;2022-12-18T08:24:49;65.68;;;33.03;;
46889;SDS011;32625;51.080;16.970;2022-12-18T08:27:16;57.38;;;27.50;;
46889;SDS011;32625;51.080;16.970;2022-12-18T08:29:55;55.37;;;25.93;;
46889;SDS011;32625;51.080;16.970;2022-12-18T08:32:23;59.77;;;27.13;;
46889;SDS011;32625;51.080;16.970;2022-12-18T08:34:51;50.70;;;25.98;;
46889;SDS011;32625;51.080;16.970;2022-12-18T08:37:18;55.90;;;25.73;;
46889;SDS011;32625;51.080;16.970;2022-12-18T08:39:46;50.13;;;25.17;;
46889;SDS011;32625;51.080;16.970;2022-12-18T08:42:13;50.38;;;25.65;;
46889;SDS011;32625;51.080;16.970;2022-12-18T08:44:58;54.78;;;25.15;;
46889;SDS011;32625;51.080;16.970;2022-12-18T08:47:25;51.63;;;23.60;;
46889;SDS011;32625;51.080;16.970;2022-12-18T08:49:52;52.55;;;26.27;;
46889;SDS011;32625;51.080;16.970;2022-12-18T08:52:22;52.85;;;25.35;;
46889;SDS011;32625;51.080;16.970;2022-12-18T08:54:50;51.63;;;23.30;;
46889;SDS011;32625;51.080;16.970;2022-12-18T08:57:17;54.88;;;25.77;;
46889;SDS011;32625;51.080;16.970;2022-12-18T08:59:44;52.28;;;25.02;;
46889;SDS011;32625;51.080;16.970;2022-12-18T09:02:11;49.10;;;24.60;;
46889;SDS011;32625;51.080;16.970;2022-12-18T09:04:39;59.60;;;27.75;;
46889;SDS011;32625;51.080;16.970;2022-12-18T09:07:06;51.45;;;25.73;;
46889;SDS011;32625;51.080;16.970;2022-12-18T09:09:33;57.10;;;28.80;;
46889;SDS011;32625;51.080;16.970;2022-12-18T09:12:00;57.65;;;28.40;;
46889;SDS011;32625;51.080;16.970;2022-12-18T09:14:27;51.85;;;25.52;;
46889;SDS011;32625;51.080;16.970;2022-12-18T09:16:54;55.50;;;26.50;;
46889;SDS011;32625;51.080;16.970;2022-12-18T09:19:21;55.78;;;26.35;;
46889;SDS011;32625;51.080;16.970;2022-12-18T09:21:48;53.63;;;25.17;;
46889;SDS011;32625;51.080;16.970;2022-12-18T09:24:16;53.10;;;24.67;;
46889;SDS011;32625;51.080;16.970;2022-12-18T09:26:43;57.47;;;26.40;;
46889;SDS011;32625;51.080;16.970;2022-12-18T09:29:13;56.40;;;26.02;;
46889;SDS011;32625;51.080;16.970;2022-12-18T09:31:42;55.53;;;27.55;;
46889;SDS011;32625;51.080;16.970;2022-12-18T09:34:09;54.70;;;27.42;;
46889;SDS011;32625;51.080;16.970;2022-12-18T09:36:36;58.45;;;25.83;;
46889;SDS011;32625;51.080;16.970;2022-12-18T09:39:04;54.33;;;26.13;;
46889;SDS011;32625;51.080;16.970;2022-12-18T09:44:20;57.57;;;27.33;;
46889;SDS011;32625;51.080;16.970;2022-12-18T09:47:01;60.92;;;27.95;;
46889;SDS011;32625;51.080;16.970;2022-12-18T09:49:34;65.53;;;31.47;;
46889;SDS011;32625;51.080;16.970;2022-12-18T09:52:11;67.20;;;32.08;;
46889;SDS011;32625;51.080;16.970;2022-12-18T09:54:48;64.28;;;30.60;;
46889;SDS011;32625;51.080;16.970;2022-12-18T09:57:20;55.03;;;24.48;;
46889;SDS011;32625;51.080;16.970;2022-12-18T10:00:02;56.85;;;26.80;;
46889;SDS011;32625;51.080;16.970;2022-12-18T10:02:40;54.60;;;25.83;;
46889;SDS011;32625;51.080;16.970;2022-12-18T10:05:12;61.20;;;26.95;;
46889;SDS011;32625;51.080;16.970;2022-12-18T10:07:49;56.27;;;26.30;;
46889;SDS011;32625;51.080;16.970;2022-12-18T10:13:37;63.78;;;28.35;;
46889;SDS011;32625;51.080;16.970;2022-12-18T10:19:23;55.30;;;27.38;;
46889;SDS011;32625;51.080;16.970;2022-12-18T10:22:22;62.83;;;28.33;;
46889;SDS011;32625;51.080;16.970;2022-12-18T10:27:51;63.03;;;27.63;;
46889;SDS011;32625;51.080;16.970;2022-12-18T10:30:22;57.90;;;26.00;;
46889;SDS011;32625;51.080;16.970;2022-12-18T10:32:51;59.92;;;26.75;;
46889;SDS011;32625;51.080;16.970;2022-12-18T10:35:20;58.75;;;28.33;;
46889;SDS011;32625;51.080;16.970;2022-12-18T10:38:02;59.60;;;28.42;;
46889;SDS011;32625;51.080;16.970;2022-12-18T10:40:55;58.90;;;27.63;;
46889;SDS011;32625;51.080;16.970;2022-12-18T10:43:28;63.17;;;28.60;;
46889;SDS011;32625;51.080;16.970;2022-12-18T10:46:00;59.05;;;27.85;;
46889;SDS011;32625;51.080;16.970;2022-12-18T10:56:34;73.22;;;30.67;;
46889;SDS011;32625;51.080;16.970;2022-12-18T10:59:09;66.10;;;30.40;;
46889;SDS011;32625;51.080;16.970;2022-12-18T11:01:47;67.85;;;29.38;;
46889;SDS011;32625;51.080;16.970;2022-12-18T11:09:36;75.18;;;31.15;;
46889;SDS011;32625;51.080;16.970;2022-12-18T11:12:14;64.85;;;29.60;;
46889;SDS011;32625;51.080;16.970;2022-12-18T11:14:48;72.47;;;31.45;;
46889;SDS011;32625;51.080;16.970;2022-12-18T11:17:20;65.18;;;29.30;;
46889;SDS011;32625;51.080;16.970;2022-12-18T11:19:53;55.30;;;24.55;;
46889;SDS011;32625;51.080;16.970;2022-12-18T11:22:28;60.33;;;26.70;;
46889;SDS011;32625;51.080;16.970;2022-12-18T11:25:01;48.13;;;23.77;;
46889;SDS011;32625;51.080;16.970;2022-12-18T11:27:49;52.45;;;25.33;;
46889;SDS011;32625;51.080;16.970;2022-12-18T11:30:21;52.72;;;25.02;;
46889;SDS011;32625;51.080;16.970;2022-12-18T11:33:09;51.63;;;23.85;;
46889;SDS011;32625;51.080;16.970;2022-12-18T11:38:25;48.40;;;21.40;;
46889;SDS011;32625;51.080;16.970;2022-12-18T11:44:36;52.13;;;22.67;;
46889;SDS011;32625;51.080;16.970;2022-12-18T11:50:01;43.47;;;21.95;;
46889;SDS011;32625;51.080;16.970;2022-12-18T11:52:38;54.13;;;25.40;;
46889;SDS011;32625;51.080;16.970;2022-12-18T11:55:11;55.70;;;26.38;;
46889;SDS011;32625;51.080;16.970;2022-12-18T12:00:23;53.92;;;23.40;;
46889;SDS011;32625;51.080;16.970;2022-12-18T12:16:32;69.60;;;28.42;;
46889;SDS011;32625;51.080;16.970;2022-12-18T12:25:02;70.63;;;28.30;;
46889;SDS011;32625;51.080;16.970;2022-12-18T12:28:02;71.82;;;28.95;;
46889;SDS011;32625;51.080;16.970;2022-12-18T12:34:17;70.28;;;29.98;;
46889;SDS011;32625;51.080;16.970;2022-12-18T12:36:18;75.80;;;32.13;;
46889;SDS011;32625;51.080;16.970;2022-12-18T12:39:03;72.65;;;32.75;;
46889;SDS011;32625;51.080;16.970;2022-12-18T12:41:35;80.90;;;34.47;;
46889;SDS011;32625;51.080;16.970;2022-12-18T12:44:28;83.00;;;35.65;;
46889;SDS011;32625;51.080;16.970;2022-12-18T12:47:00;73.57;;;31.95;;
46889;SDS011;32625;51.080;16.970;2022-12-18T12:49:31;72.85;;;30.88;;
46889;SDS011;32625;51.080;16.970;2022-12-18T12:52:07;72.20;;;30.60;;
46889;SDS011;32625;51.080;16.970;2022-12-18T12:54:40;67.38;;;29.50;;
46889;SDS011;32625;51.080;16.970;2022-12-18T12:57:21;73.55;;;33.08;;
46889;SDS011;32625;51.080;16.970;2022-12-18T13:00:22;84.32;;;35.38;;
46889;SDS011;32625;51.080;16.970;2022-12-18T13:05:28;103.22;;;42.95;;
46889;SDS011;32625;51.080;16.970;2022-12-18T13:08:22;91.72;;;37.20;;
46889;SDS011;32625;51.080;16.970;2022-12-18T13:10:57;93.13;;;38.00;;
46889;SDS011;32625;51.080;16.970;2022-12-18T13:13:52;71.15;;;32.30;;
46889;SDS011;32625;51.080;16.970;2022-12-18T13:16:22;76.13;;;30.42;;
46889;SDS011;32625;51.080;16.970;2022-12-18T13:18:52;77.28;;;33.08;;
46889;SDS011;32625;51.080;16.970;2022-12-18T13:21:21;70.17;;;33.10;;
46889;SDS011;32625;51.080;16.970;2022-12-18T13:23:53;74.40;;;33.80;;
46889;SDS011;32625;51.080;16.970;2022-12-18T13:28:54;82.85;;;33.17;;
46889;SDS011;32625;51.080;16.970;2022-12-18T13:34:15;77.07;;;33.08;;
46889;SDS011;32625;51.080;16.970;2022-12-18T13:36:55;84.47;;;35.05;;
46889;SDS011;32625;51.080;16.970;2022-12-18T13:39:43;74.77;;;33.93;;
46889;SDS011;32625;51.080;16.970;2022-12-18T13:44:58;76.95;;;32.50;;
46889;SDS011;32625;51.080;16.970;2022-12-18T13:50:00;87.95;;;34.60;;
46889;SDS011;32625;51.080;16.970;2022-12-18T13:53:16;84.53;;;35.90;;
46889;SDS011;32625;51.080;16.970;2022-12-18T13:55:51;86.13;;;39.05;;
46889;SDS011;32625;51.080;16.970;2022-12-18T13:58:19;75.82;;;33.67;;
46889;SDS011;32625;51.080;16.970;2022-12-18T14:00:46;74.18;;;33.67;;
46889;SDS011;32625;51.080;16.970;2022-12-18T14:03:21;82.88;;;35.50;;
46889;SDS011;32625;51.080;16.970;2022-12-18T14:05:54;75.80;;;34.53;;
46889;SDS011;32625;51.080;16.970;2022-12-18T14:08:27;85.32;;;35.35;;
46889;SDS011;32625;51.080;16.970;2022-12-18T14:10:59;77.55;;;35.22;;
46889;SDS011;32625;51.080;16.970;2022-12-18T14:13:29;82.72;;;33.80;;
46889;SDS011;32625;51.080;16.970;2022-12-18T14:15:59;82.38;;;35.58;;
46889;SDS011;32625;51.080;16.970;2022-12-18T14:18:46;78.87;;;34.67;;
46889;SDS011;32625;51.080;16.970;2022-12-18T14:21:26;80.33;;;33.20;;
46889;SDS011;32625;51.080;16.970;2022-12-18T14:24:04;84.63;;;34.83;;
46889;SDS011;32625;51.080;16.970;2022-12-18T14:26:35;79.73;;;34.40;;
46889;SDS011;32625;51.080;16.970;2022-12-18T14:32:06;80.77;;;34.20;;
46889;SDS011;32625;51.080;16.970;2022-12-18T14:34:45;236.43;;;115.60;;
46889;SDS011;32625;51.080;16.970;2022-12-18T14:37:14;104.87;;;51.80;;
46889;SDS011;32625;51.080;16.970;2022-12-18T14:39:56;97.13;;;45.37;;
46889;SDS011;32625;51.080;16.970;2022-12-18T14:42:36;132.23;;;77.20;;
46889;SDS011;32625;51.080;16.970;2022-12-18T14:48:13;149.33;;;78.10;;
46889;SDS011;32625;51.080;16.970;2022-12-18T14:51:03;130.65;;;67.53;;
46889;SDS011;32625;51.080;16.970;2022-12-18T14:53:34;97.83;;;47.30;;
46889;SDS011;32625;51.080;16.970;2022-12-18T14:58:49;105.07;;;46.20;;
46889;SDS011;32625;51.080;16.970;2022-12-18T15:01:20;93.90;;;42.90;;
46889;SDS011;32625;51.080;16.970;2022-12-18T15:03:51;85.43;;;36.87;;
46889;SDS011;32625;51.080;16.970;2022-12-18T15:06:36;86.70;;;39.87;;
46889;SDS011;32625;51.080;16.970;2022-12-18T15:09:20;72.13;;;35.60;;
46889;SDS011;32625;51.080;16.970;2022-12-18T15:11:54;81.80;;;38.75;;
46889;SDS011;32625;51.080;16.970;2022-12-18T15:14:38;162.40;;;97.87;;
46889;SDS011;32625;51.080;16.970;2022-12-18T15:17:17;86.90;;;43.72;;
46889;SDS011;32625;51.080;16.970;2022-12-18T15:19:46;83.87;;;40.03;;
46889;SDS011;32625;51.080;16.970;2022-12-18T15:22:22;85.17;;;40.00;;
46889;SDS011;32625;51.080;16.970;2022-12-18T15:24:56;93.67;;;43.60;;
46889;SDS011;32625;51.080;16.970;2022-12-18T15:27:26;93.50;;;41.53;;
46889;SDS011;32625;51.080;16.970;2022-12-18T15:32:39;75.70;;;35.53;;
46889;SDS011;32625;51.080;16.970;2022-12-18T15:37:47;119.33;;;57.97;;
46889;SDS011;32625;51.080;16.970;2022-12-18T15:40:17;77.23;;;38.00;;
46889;SDS011;32625;51.080;16.970;2022-12-18T15:42:46;82.17;;;37.13;;
46889;SDS011;32625;51.080;16.970;2022-12-18T15:45:33;77.93;;;36.53;;
46889;SDS011;32625;51.080;16.970;2022-12-18T15:48:09;87.47;;;43.33;;
46889;SDS011;32625;51.080;16.970;2022-12-18T15:50:49;82.13;;;38.30;;
46889;SDS011;32625;51.080;16.970;2022-12-18T15:53:18;100.40;;;43.23;;
46889;SDS011;32625;51.080;16.970;2022-12-18T15:55:46;85.90;;;38.33;;
46889;SDS011;32625;51.080;16.970;2022-12-18T15:58:31;88.60;;;41.87;;
46889;SDS011;32625;51.080;16.970;2022-12-18T16:00:59;115.07;;;57.40;;
46889;SDS011;32625;51.080;16.970;2022-12-18T16:03:27;97.00;;;43.30;;
46889;SDS011;32625;51.080;16.970;2022-12-18T16:05:54;100.17;;;41.13;;
46889;SDS011;32625;51.080;16.970;2022-12-18T16:08:23;92.53;;;39.07;;
46889;SDS011;32625;51.080;16.970;2022-12-18T16:10:50;99.67;;;40.77;;
46889;SDS011;32625;51.080;16.970;2022-12-18T16:13:18;96.27;;;39.80;;
46889;SDS011;32625;51.080;16.970;2022-12-18T16:15:46;97.27;;;43.13;;
46889;SDS011;32625;51.080;16.970;2022-12-18T16:18:14;98.37;;;40.53;;
46889;SDS011;32625;51.080;16.970;2022-12-18T16:20:41;101.77;;;41.27;;
46889;SDS011;32625;51.080;16.970;2022-12-18T16:23:08;92.27;;;42.20;;
46889;SDS011;32625;51.080;16.970;2022-12-18T16:25:35;107.33;;;46.80;;
46889;SDS011;32625;51.080;16.970;2022-12-18T16:28:05;106.00;;;43.80;;
46889;SDS011;32625;51.080;16.970;2022-12-18T16:30:33;97.00;;;42.70;;
46889;SDS011;32625;51.080;16.970;2022-12-18T16:33:05;109.73;;;45.47;;